sensor_id;sensor_type;location;lat;lon;timestamp;temperature;humidity
3348;DHT22;1687;49.540;8.574;2023-07-20T00:01:12;22.00;51.40
3348;DHT22;1687;49.540;8.574;2023-07-20T00:03:38;21.90;51.30
3348;DHT22;1687;49.540;8.574;2023-07-20T00:06:04;21.90;51.50
3348;DHT22;1687;49.540;8.574;2023-07-20T00:08:30;21.90;51.50
3348;DHT22;1687;49.540;8.574;2023-07-20T00:10:56;21.90;51.60
3348;DHT22;1687;49.540;8.574;2023-07-20T00:13:22;21.90;51.50
3348;DHT22;1687;49.540;8.574;2023-07-20T00:15:47;21.80;51.50
3348;DHT22;1687;49.540;8.574;2023-07-20T00:18:13;21.80;51.70
3348;DHT22;1687;49.540;8.574;2023-07-20T00:20:39;21.70;51.70
3348;DHT22;1687;49.540;8.574;2023-07-20T00:23:05;21.70;51.70
3348;DHT22;1687;49.540;8.574;2023-07-20T00:25:31;21.60;51.70
3348;DHT22;1687;49.540;8.574;2023-07-20T00:27:57;21.50;51.80
3348;DHT22;1687;49.540;8.574;2023-07-20T00:30:23;21.50;52.00
3348;DHT22;1687;49.540;8.574;2023-07-20T00:32:48;21.50;52.00
3348;DHT22;1687;49.540;8.574;2023-07-20T00:35:14;21.50;52.00
3348;DHT22;1687;49.540;8.574;2023-07-20T00:37:40;21.50;52.10
3348;DHT22;1687;49.540;8.574;2023-07-20T00:40:07;21.50;52.20
3348;DHT22;1687;49.540;8.574;2023-07-20T00:42:33;21.50;52.20
3348;DHT22;1687;49.540;8.574;2023-07-20T00:44:59;21.50;52.20
3348;DHT22;1687;49.540;8.574;2023-07-20T00:47:26;21.40;52.20
3348;DHT22;1687;49.540;8.574;2023-07-20T00:49:52;21.30;52.20
3348;DHT22;1687;49.540;8.574;2023-07-20T00:52:19;21.30;52.40
3348;DHT22;1687;49.540;8.574;2023-07-20T00:54:47;21.30;52.50
3348;DHT22;1687;49.540;8.574;2023-07-20T00:57:14;21.20;52.60
3348;DHT22;1687;49.540;8.574;2023-07-20T00:59:41;21.20;52.60
3348;DHT22;1687;49.540;8.574;2023-07-20T01:02:07;21.20;52.60
3348;DHT22;1687;49.540;8.574;2023-07-20T01:04:33;21.20;52.80
3348;DHT22;1687;49.540;8.574;2023-07-20T01:07:25;21.10;52.80
3348;DHT22;1687;49.540;8.574;2023-07-20T01:10:06;21.00;52.70
3348;DHT22;1687;49.540;8.574;2023-07-20T01:12:43;21.00;52.90
3348;DHT22;1687;49.540;8.574;2023-07-20T01:15:12;20.90;53.00
3348;DHT22;1687;49.540;8.574;2023-07-20T01:17:38;20.90;52.90
3348;DHT22;1687;49.540;8.574;2023-07-20T01:20:05;20.90;53.10
3348;DHT22;1687;49.540;8.574;2023-07-20T01:22:59;20.80;53.10
3348;DHT22;1687;49.540;8.574;2023-07-20T01:31:44;20.60;53.30
3348;DHT22;1687;49.540;8.574;2023-07-20T01:34:12;20.60;53.40
3348;DHT22;1687;49.540;8.574;2023-07-20T01:36:42;20.50;53.40
3348;DHT22;1687;49.540;8.574;2023-07-20T01:39:08;20.50;53.50
3348;DHT22;1687;49.540;8.574;2023-07-20T01:41:34;20.50;53.70
3348;DHT22;1687;49.540;8.574;2023-07-20T01:44:00;20.50;53.70
3348;DHT22;1687;49.540;8.574;2023-07-20T01:46:26;20.50;53.80
3348;DHT22;1687;49.540;8.574;2023-07-20T01:48:52;20.50;53.80
3348;DHT22;1687;49.540;8.574;2023-07-20T01:51:19;20.60;53.90
3348;DHT22;1687;49.540;8.574;2023-07-20T01:53:45;20.60;53.80
3348;DHT22;1687;49.540;8.574;2023-07-20T01:56:11;20.50;53.70
3348;DHT22;1687;49.540;8.574;2023-07-20T01:58:37;20.50;53.70
3348;DHT22;1687;49.540;8.574;2023-07-20T02:01:04;20.50;53.90
3348;DHT22;1687;49.540;8.574;2023-07-20T02:03:29;20.40;53.80
3348;DHT22;1687;49.540;8.574;2023-07-20T02:05:55;20.40;53.90
3348;DHT22;1687;49.540;8.574;2023-07-20T02:08:22;20.30;53.90
3348;DHT22;1687;49.540;8.574;2023-07-20T02:10:48;20.30;54.00
3348;DHT22;1687;49.540;8.574;2023-07-20T02:13:14;20.30;54.00
3348;DHT22;1687;49.540;8.574;2023-07-20T02:15:40;20.20;53.90
3348;DHT22;1687;49.540;8.574;2023-07-20T02:18:07;20.10;54.10
3348;DHT22;1687;49.540;8.574;2023-07-20T02:20:33;20.00;54.20
3348;DHT22;1687;49.540;8.574;2023-07-20T02:22:59;20.00;54.20
3348;DHT22;1687;49.540;8.574;2023-07-20T02:25:25;20.00;54.30
3348;DHT22;1687;49.540;8.574;2023-07-20T02:27:50;19.90;54.40
3348;DHT22;1687;49.540;8.574;2023-07-20T02:30:16;19.90;54.70
3348;DHT22;1687;49.540;8.574;2023-07-20T02:32:43;19.90;54.50
3348;DHT22;1687;49.540;8.574;2023-07-20T02:35:11;19.80;54.50
3348;DHT22;1687;49.540;8.574;2023-07-20T02:37:37;19.80;54.70
3348;DHT22;1687;49.540;8.574;2023-07-20T02:40:03;19.70;54.80
3348;DHT22;1687;49.540;8.574;2023-07-20T02:42:30;19.70;54.70
3348;DHT22;1687;49.540;8.574;2023-07-20T02:44:56;19.60;54.70
3348;DHT22;1687;49.540;8.574;2023-07-20T02:47:21;19.50;54.90
3348;DHT22;1687;49.540;8.574;2023-07-20T02:49:47;19.40;54.90
3348;DHT22;1687;49.540;8.574;2023-07-20T02:52:12;19.40;55.10
3348;DHT22;1687;49.540;8.574;2023-07-20T02:54:38;19.40;55.20
3348;DHT22;1687;49.540;8.574;2023-07-20T02:57:04;19.40;55.30
3348;DHT22;1687;49.540;8.574;2023-07-20T02:59:30;19.40;55.40
3348;DHT22;1687;49.540;8.574;2023-07-20T03:01:55;19.40;55.50
3348;DHT22;1687;49.540;8.574;2023-07-20T03:04:23;19.40;55.50
3348;DHT22;1687;49.540;8.574;2023-07-20T03:06:51;19.40;55.50
3348;DHT22;1687;49.540;8.574;2023-07-20T03:09:16;19.40;55.60
3348;DHT22;1687;49.540;8.574;2023-07-20T03:11:42;19.40;55.60
3348;DHT22;1687;49.540;8.574;2023-07-20T03:14:08;19.40;55.70
3348;DHT22;1687;49.540;8.574;2023-07-20T03:16:33;19.40;55.70
3348;DHT22;1687;49.540;8.574;2023-07-20T03:19:00;19.30;55.50
3348;DHT22;1687;49.540;8.574;2023-07-20T03:21:26;19.30;55.70
3348;DHT22;1687;49.540;8.574;2023-07-20T03:23:51;19.30;55.90
3348;DHT22;1687;49.540;8.574;2023-07-20T03:26:17;19.30;55.80
3348;DHT22;1687;49.540;8.574;2023-07-20T03:28:43;19.30;56.00
3348;DHT22;1687;49.540;8.574;2023-07-20T03:31:09;19.30;56.00
3348;DHT22;1687;49.540;8.574;2023-07-20T03:33:35;19.30;56.00
3348;DHT22;1687;49.540;8.574;2023-07-20T03:36:00;19.30;56.00
3348;DHT22;1687;49.540;8.574;2023-07-20T03:38:27;19.20;56.10
3348;DHT22;1687;49.540;8.574;2023-07-20T03:40:57;19.20;56.20
3348;DHT22;1687;49.540;8.574;2023-07-20T03:43:25;19.20;56.20
3348;DHT22;1687;49.540;8.574;2023-07-20T03:45:52;19.10;56.20
3348;DHT22;1687;49.540;8.574;2023-07-20T03:48:22;19.00;56.80
3348;DHT22;1687;49.540;8.574;2023-07-20T03:50:50;19.00;56.30
3348;DHT22;1687;49.540;8.574;2023-07-20T03:53:17;18.90;56.40
3348;DHT22;1687;49.540;8.574;2023-07-20T03:55:49;18.90;56.60
3348;DHT22;1687;49.540;8.574;2023-07-20T03:58:16;18.90;56.60
3348;DHT22;1687;49.540;8.574;2023-07-20T04:00:47;18.80;56.60
3348;DHT22;1687;49.540;8.574;2023-07-20T04:03:16;18.80;56.70
3348;DHT22;1687;49.540;8.574;2023-07-20T04:05:42;18.90;56.90
3348;DHT22;1687;49.540;8.574;2023-07-20T04:08:08;18.90;57.50
3348;DHT22;1687;49.540;8.574;2023-07-20T04:10:34;18.90;57.00
3348;DHT22;1687;49.540;8.574;2023-07-20T04:13:00;18.80;56.90
3348;DHT22;1687;49.540;8.574;2023-07-20T04:15:26;18.80;57.00
3348;DHT22;1687;49.540;8.574;2023-07-20T04:17:52;18.80;57.10
3348;DHT22;1687;49.540;8.574;2023-07-20T04:20:17;18.80;57.30
3348;DHT22;1687;49.540;8.574;2023-07-20T04:22:43;18.80;57.30
3348;DHT22;1687;49.540;8.574;2023-07-20T04:25:09;18.90;57.40
3348;DHT22;1687;49.540;8.574;2023-07-20T04:27:35;18.90;57.50
3348;DHT22;1687;49.540;8.574;2023-07-20T04:30:02;19.10;57.70
3348;DHT22;1687;49.540;8.574;2023-07-20T04:32:29;19.20;57.70
3348;DHT22;1687;49.540;8.574;2023-07-20T04:34:54;19.30;57.70
3348;DHT22;1687;49.540;8.574;2023-07-20T04:37:20;19.40;57.70
3348;DHT22;1687;49.540;8.574;2023-07-20T04:39:46;19.50;57.80
3348;DHT22;1687;49.540;8.574;2023-07-20T04:42:12;19.60;57.80
3348;DHT22;1687;49.540;8.574;2023-07-20T04:44:38;19.60;57.70
3348;DHT22;1687;49.540;8.574;2023-07-20T04:47:03;19.70;57.90
3348;DHT22;1687;49.540;8.574;2023-07-20T04:49:29;19.80;57.80
3348;DHT22;1687;49.540;8.574;2023-07-20T04:51:55;19.90;57.90
3348;DHT22;1687;49.540;8.574;2023-07-20T04:54:21;20.00;57.80
3348;DHT22;1687;49.540;8.574;2023-07-20T04:56:47;20.10;57.80
3348;DHT22;1687;49.540;8.574;2023-07-20T04:59:12;20.20;57.70
3348;DHT22;1687;49.540;8.574;2023-07-20T05:01:38;20.20;57.60
3348;DHT22;1687;49.540;8.574;2023-07-20T05:04:04;20.10;57.60
3348;DHT22;1687;49.540;8.574;2023-07-20T05:06:29;20.20;57.70
3348;DHT22;1687;49.540;8.574;2023-07-20T05:08:55;20.20;57.70
3348;DHT22;1687;49.540;8.574;2023-07-20T05:11:21;20.20;57.80
3348;DHT22;1687;49.540;8.574;2023-07-20T05:13:46;20.30;57.80
3348;DHT22;1687;49.540;8.574;2023-07-20T05:16:12;20.30;57.80
3348;DHT22;1687;49.540;8.574;2023-07-20T05:18:38;20.20;57.80
3348;DHT22;1687;49.540;8.574;2023-07-20T05:21:05;20.30;57.80
3348;DHT22;1687;49.540;8.574;2023-07-20T05:23:31;20.30;57.90
3348;DHT22;1687;49.540;8.574;2023-07-20T05:25:58;20.40;58.10
3348;DHT22;1687;49.540;8.574;2023-07-20T05:28:27;20.60;58.20
3348;DHT22;1687;49.540;8.574;2023-07-20T05:30:53;20.70;58.10
3348;DHT22;1687;49.540;8.574;2023-07-20T05:33:20;20.80;58.10
3348;DHT22;1687;49.540;8.574;2023-07-20T05:35:46;20.80;58.00
3348;DHT22;1687;49.540;8.574;2023-07-20T05:38:12;20.90;58.20
3348;DHT22;1687;49.540;8.574;2023-07-20T05:40:40;21.00;58.10
3348;DHT22;1687;49.540;8.574;2023-07-20T05:43:06;21.10;58.20
3348;DHT22;1687;49.540;8.574;2023-07-20T05:45:31;21.20;58.10
3348;DHT22;1687;49.540;8.574;2023-07-20T05:47:57;21.30;58.10
3348;DHT22;1687;49.540;8.574;2023-07-20T05:50:23;21.40;58.00
3348;DHT22;1687;49.540;8.574;2023-07-20T05:52:49;21.50;58.10
3348;DHT22;1687;49.540;8.574;2023-07-20T05:55:17;21.70;58.20
3348;DHT22;1687;49.540;8.574;2023-07-20T05:57:43;21.70;57.70
3348;DHT22;1687;49.540;8.574;2023-07-20T06:00:09;21.80;57.90
3348;DHT22;1687;49.540;8.574;2023-07-20T06:02:35;21.70;57.70
3348;DHT22;1687;49.540;8.574;2023-07-20T06:05:01;21.80;57.80
3348;DHT22;1687;49.540;8.574;2023-07-20T06:07:27;21.90;57.80
3348;DHT22;1687;49.540;8.574;2023-07-20T06:09:53;21.90;57.70
3348;DHT22;1687;49.540;8.574;2023-07-20T06:12:18;21.80;57.60
3348;DHT22;1687;49.540;8.574;2023-07-20T06:14:44;21.70;57.60
3348;DHT22;1687;49.540;8.574;2023-07-20T06:17:10;21.80;57.80
3348;DHT22;1687;49.540;8.574;2023-07-20T06:19:35;21.80;57.80
3348;DHT22;1687;49.540;8.574;2023-07-20T06:22:02;21.80;57.70
3348;DHT22;1687;49.540;8.574;2023-07-20T06:24:27;21.80;57.60
3348;DHT22;1687;49.540;8.574;2023-07-20T06:26:53;21.90;57.60
3348;DHT22;1687;49.540;8.574;2023-07-20T06:29:19;21.80;57.50
3348;DHT22;1687;49.540;8.574;2023-07-20T06:31:44;21.80;58.00
3348;DHT22;1687;49.540;8.574;2023-07-20T06:34:10;21.80;57.80
3348;DHT22;1687;49.540;8.574;2023-07-20T06:36:36;22.10;58.10
3348;DHT22;1687;49.540;8.574;2023-07-20T06:39:01;22.40;58.40
3348;DHT22;1687;49.540;8.574;2023-07-20T06:41:28;22.50;57.70
3348;DHT22;1687;49.540;8.574;2023-07-20T06:43:53;22.70;57.80
3348;DHT22;1687;49.540;8.574;2023-07-20T06:46:24;22.90;57.80
3348;DHT22;1687;49.540;8.574;2023-07-20T06:48:51;23.20;57.80
3348;DHT22;1687;49.540;8.574;2023-07-20T06:51:16;23.20;57.30
3348;DHT22;1687;49.540;8.574;2023-07-20T06:53:43;23.10;56.90
3348;DHT22;1687;49.540;8.574;2023-07-20T06:56:09;23.10;57.20
3348;DHT22;1687;49.540;8.574;2023-07-20T06:58:34;23.20;57.20
3348;DHT22;1687;49.540;8.574;2023-07-20T07:01:05;23.30;57.10
3348;DHT22;1687;49.540;8.574;2023-07-20T07:03:32;23.40;57.70
3348;DHT22;1687;49.540;8.574;2023-07-20T07:05:58;23.60;57.00
3348;DHT22;1687;49.540;8.574;2023-07-20T07:08:24;23.70;56.90
3348;DHT22;1687;49.540;8.574;2023-07-20T07:10:50;23.80;56.60
3348;DHT22;1687;49.540;8.574;2023-07-20T07:13:16;23.90;56.40
3348;DHT22;1687;49.540;8.574;2023-07-20T07:15:42;24.00;56.10
3348;DHT22;1687;49.540;8.574;2023-07-20T07:18:08;24.00;56.20
3348;DHT22;1687;49.540;8.574;2023-07-20T07:20:34;24.20;56.20
3348;DHT22;1687;49.540;8.574;2023-07-20T07:22:59;24.40;56.00
3348;DHT22;1687;49.540;8.574;2023-07-20T07:25:26;24.60;55.80
3348;DHT22;1687;49.540;8.574;2023-07-20T07:27:52;24.80;55.90
3348;DHT22;1687;49.540;8.574;2023-07-20T07:30:19;24.80;55.10
3348;DHT22;1687;49.540;8.574;2023-07-20T07:32:45;24.70;55.20
3348;DHT22;1687;49.540;8.574;2023-07-20T07:35:10;24.60;54.70
3348;DHT22;1687;49.540;8.574;2023-07-20T07:37:36;24.30;54.60
3348;DHT22;1687;49.540;8.574;2023-07-20T07:40:03;24.10;54.50
3348;DHT22;1687;49.540;8.574;2023-07-20T07:42:29;23.70;54.10
3348;DHT22;1687;49.540;8.574;2023-07-20T07:44:55;23.50;54.20
3348;DHT22;1687;49.540;8.574;2023-07-20T07:47:21;23.30;54.10
3348;DHT22;1687;49.540;8.574;2023-07-20T07:49:46;23.10;54.00
3348;DHT22;1687;49.540;8.574;2023-07-20T07:52:12;23.00;54.00
3348;DHT22;1687;49.540;8.574;2023-07-20T07:54:39;22.80;54.10
3348;DHT22;1687;49.540;8.574;2023-07-20T07:57:05;23.00;54.30
3348;DHT22;1687;49.540;8.574;2023-07-20T07:59:31;23.20;54.30
3348;DHT22;1687;49.540;8.574;2023-07-20T08:02:02;23.50;54.80
3348;DHT22;1687;49.540;8.574;2023-07-20T08:04:29;23.70;54.00
3348;DHT22;1687;49.540;8.574;2023-07-20T08:06:55;23.70;53.80
3348;DHT22;1687;49.540;8.574;2023-07-20T08:09:21;23.80;54.00
3348;DHT22;1687;49.540;8.574;2023-07-20T08:11:46;24.00;54.10
3348;DHT22;1687;49.540;8.574;2023-07-20T08:14:13;23.90;53.80
3348;DHT22;1687;49.540;8.574;2023-07-20T08:16:39;23.70;53.60
3348;DHT22;1687;49.540;8.574;2023-07-20T08:19:05;23.60;53.70
3348;DHT22;1687;49.540;8.574;2023-07-20T08:21:30;23.60;53.80
3348;DHT22;1687;49.540;8.574;2023-07-20T08:23:56;23.50;53.60
3348;DHT22;1687;49.540;8.574;2023-07-20T08:26:23;23.50;53.70
3348;DHT22;1687;49.540;8.574;2023-07-20T08:28:49;23.50;53.80
3348;DHT22;1687;49.540;8.574;2023-07-20T08:31:15;23.70;53.90
3348;DHT22;1687;49.540;8.574;2023-07-20T08:33:40;23.90;53.80
3348;DHT22;1687;49.540;8.574;2023-07-20T08:36:06;24.10;53.80
3348;DHT22;1687;49.540;8.574;2023-07-20T08:38:33;24.40;53.70
3348;DHT22;1687;49.540;8.574;2023-07-20T08:40:58;24.60;53.40
3348;DHT22;1687;49.540;8.574;2023-07-20T08:43:25;24.60;53.20
3348;DHT22;1687;49.540;8.574;2023-07-20T08:45:54;24.80;53.50
3348;DHT22;1687;49.540;8.574;2023-07-20T08:48:24;24.70;53.00
3348;DHT22;1687;49.540;8.574;2023-07-20T08:50:53;24.50;52.80
3348;DHT22;1687;49.540;8.574;2023-07-20T08:53:20;24.30;52.50
3348;DHT22;1687;49.540;8.574;2023-07-20T08:55:50;24.10;53.00
3348;DHT22;1687;49.540;8.574;2023-07-20T08:58:17;23.90;52.40
3348;DHT22;1687;49.540;8.574;2023-07-20T09:00:43;24.10;52.70
3348;DHT22;1687;49.540;8.574;2023-07-20T09:03:10;24.40;52.40
3348;DHT22;1687;49.540;8.574;2023-07-20T09:05:36;24.80;52.50
3348;DHT22;1687;49.540;8.574;2023-07-20T09:08:02;25.00;52.30
3348;DHT22;1687;49.540;8.574;2023-07-20T09:10:29;25.30;52.20
3348;DHT22;1687;49.540;8.574;2023-07-20T09:12:55;25.40;51.70
3348;DHT22;1687;49.540;8.574;2023-07-20T09:15:22;25.30;51.40
3348;DHT22;1687;49.540;8.574;2023-07-20T09:17:51;25.00;51.10
3348;DHT22;1687;49.540;8.574;2023-07-20T09:20:19;24.60;51.00
3348;DHT22;1687;49.540;8.574;2023-07-20T09:22:46;24.30;51.10
3348;DHT22;1687;49.540;8.574;2023-07-20T09:25:16;24.10;51.40
3348;DHT22;1687;49.540;8.574;2023-07-20T09:27:46;23.90;51.50
3348;DHT22;1687;49.540;8.574;2023-07-20T09:30:14;23.70;51.60
3348;DHT22;1687;49.540;8.574;2023-07-20T09:32:47;23.80;52.50
3348;DHT22;1687;49.540;8.574;2023-07-20T09:35:20;24.20;52.50
3348;DHT22;1687;49.540;8.574;2023-07-20T09:40:17;24.90;52.50
3348;DHT22;1687;49.540;8.574;2023-07-20T09:42:44;25.30;52.40
3348;DHT22;1687;49.540;8.574;2023-07-20T09:45:10;25.50;52.10
3348;DHT22;1687;49.540;8.574;2023-07-20T09:47:37;25.40;51.80
3348;DHT22;1687;49.540;8.574;2023-07-20T09:50:04;25.30;51.60
3348;DHT22;1687;49.540;8.574;2023-07-20T09:52:40;25.20;51.70
3348;DHT22;1687;49.540;8.574;2023-07-20T09:55:07;25.10;51.60
3348;DHT22;1687;49.540;8.574;2023-07-20T09:57:34;25.10;51.60
3348;DHT22;1687;49.540;8.574;2023-07-20T10:00:03;25.00;51.50
3348;DHT22;1687;49.540;8.574;2023-07-20T10:02:37;24.80;51.30
3348;DHT22;1687;49.540;8.574;2023-07-20T10:05:08;24.80;51.50
3348;DHT22;1687;49.540;8.574;2023-07-20T10:07:49;24.80;51.30
3348;DHT22;1687;49.540;8.574;2023-07-20T10:10:17;24.60;51.20
3348;DHT22;1687;49.540;8.574;2023-07-20T10:12:48;24.70;51.30
3348;DHT22;1687;49.540;8.574;2023-07-20T10:15:24;25.00;51.60
3348;DHT22;1687;49.540;8.574;2023-07-20T10:18:03;25.40;51.30
3348;DHT22;1687;49.540;8.574;2023-07-20T10:20:36;25.80;51.30
3348;DHT22;1687;49.540;8.574;2023-07-20T10:23:05;26.10;51.00
3348;DHT22;1687;49.540;8.574;2023-07-20T10:25:33;26.00;50.20
3348;DHT22;1687;49.540;8.574;2023-07-20T10:28:05;26.00;50.60
3348;DHT22;1687;49.540;8.574;2023-07-20T10:30:35;26.20;50.40
3348;DHT22;1687;49.540;8.574;2023-07-20T10:33:03;26.30;50.20
3348;DHT22;1687;49.540;8.574;2023-07-20T10:35:29;26.50;50.10
3348;DHT22;1687;49.540;8.574;2023-07-20T10:38:03;26.40;49.90
3348;DHT22;1687;49.540;8.574;2023-07-20T10:40:31;26.40;49.80
3348;DHT22;1687;49.540;8.574;2023-07-20T10:43:05;26.20;49.60
3348;DHT22;1687;49.540;8.574;2023-07-20T10:45:39;26.20;50.20
3348;DHT22;1687;49.540;8.574;2023-07-20T10:48:23;26.40;49.70
3348;DHT22;1687;49.540;8.574;2023-07-20T10:51:12;26.60;49.60
3348;DHT22;1687;49.540;8.574;2023-07-20T10:53:41;26.90;49.30
3348;DHT22;1687;49.540;8.574;2023-07-20T10:58:34;27.00;48.80
3348;DHT22;1687;49.540;8.574;2023-07-20T11:01:01;27.10;48.80
3348;DHT22;1687;49.540;8.574;2023-07-20T11:03:32;27.10;48.40
3348;DHT22;1687;49.540;8.574;2023-07-20T11:05:58;27.00;47.90
3348;DHT22;1687;49.540;8.574;2023-07-20T11:08:38;26.80;47.60
3348;DHT22;1687;49.540;8.574;2023-07-20T11:11:22;27.00;47.90
3348;DHT22;1687;49.540;8.574;2023-07-20T11:13:55;27.30;47.70
3348;DHT22;1687;49.540;8.574;2023-07-20T11:16:33;27.40;47.30
3348;DHT22;1687;49.540;8.574;2023-07-20T11:18:59;27.50;47.40
3348;DHT22;1687;49.540;8.574;2023-07-20T11:21:25;27.70;47.10
3348;DHT22;1687;49.540;8.574;2023-07-20T11:23:55;27.60;47.00
3348;DHT22;1687;49.540;8.574;2023-07-20T11:26:21;27.50;46.70
3348;DHT22;1687;49.540;8.574;2023-07-20T11:28:50;27.40;46.60
3348;DHT22;1687;49.540;8.574;2023-07-20T11:31:18;27.70;46.80
3348;DHT22;1687;49.540;8.574;2023-07-20T11:33:44;27.90;46.60
3348;DHT22;1687;49.540;8.574;2023-07-20T11:36:10;27.70;45.90
3348;DHT22;1687;49.540;8.574;2023-07-20T11:38:36;27.80;46.20
3348;DHT22;1687;49.540;8.574;2023-07-20T11:41:05;27.80;46.10
3348;DHT22;1687;49.540;8.574;2023-07-20T11:43:30;28.00;46.20
3348;DHT22;1687;49.540;8.574;2023-07-20T11:45:56;28.00;45.60
3348;DHT22;1687;49.540;8.574;2023-07-20T11:48:22;28.00;45.50
3348;DHT22;1687;49.540;8.574;2023-07-20T11:50:48;28.10;45.70
3348;DHT22;1687;49.540;8.574;2023-07-20T11:53:14;28.20;45.30
3348;DHT22;1687;49.540;8.574;2023-07-20T11:55:41;28.10;45.00
3348;DHT22;1687;49.540;8.574;2023-07-20T11:58:09;28.10;45.10
3348;DHT22;1687;49.540;8.574;2023-07-20T12:00:36;28.00;44.90
3348;DHT22;1687;49.540;8.574;2023-07-20T12:03:06;28.10;45.10
3348;DHT22;1687;49.540;8.574;2023-07-20T12:05:32;28.10;44.80
3348;DHT22;1687;49.540;8.574;2023-07-20T12:07:58;27.80;44.40
3348;DHT22;1687;49.540;8.574;2023-07-20T12:10:28;27.50;44.60
3348;DHT22;1687;49.540;8.574;2023-07-20T12:13:01;27.40;44.70
3348;DHT22;1687;49.540;8.574;2023-07-20T12:15:29;27.30;44.50
3348;DHT22;1687;49.540;8.574;2023-07-20T12:17:57;27.20;44.50
3348;DHT22;1687;49.540;8.574;2023-07-20T12:20:35;27.30;44.70
3348;DHT22;1687;49.540;8.574;2023-07-20T12:23:09;27.30;44.60
3348;DHT22;1687;49.540;8.574;2023-07-20T12:25:40;27.30;44.60
3348;DHT22;1687;49.540;8.574;2023-07-20T12:28:17;27.20;44.70
3348;DHT22;1687;49.540;8.574;2023-07-20T12:30:44;27.20;44.80
3348;DHT22;1687;49.540;8.574;2023-07-20T12:33:11;27.40;45.00
3348;DHT22;1687;49.540;8.574;2023-07-20T12:35:39;27.50;44.70
3348;DHT22;1687;49.540;8.574;2023-07-20T12:38:05;27.60;44.90
3348;DHT22;1687;49.540;8.574;2023-07-20T12:40:31;27.70;44.70
3348;DHT22;1687;49.540;8.574;2023-07-20T12:42:57;27.70;44.70
3348;DHT22;1687;49.540;8.574;2023-07-20T12:45:23;27.60;44.60
3348;DHT22;1687;49.540;8.574;2023-07-20T12:47:49;27.50;44.40
3348;DHT22;1687;49.540;8.574;2023-07-20T12:50:15;27.60;44.60
3348;DHT22;1687;49.540;8.574;2023-07-20T12:52:40;27.70;44.60
3348;DHT22;1687;49.540;8.574;2023-07-20T12:55:08;27.80;44.60
3348;DHT22;1687;49.540;8.574;2023-07-20T12:57:35;27.90;44.50
3348;DHT22;1687;49.540;8.574;2023-07-20T13:00:02;27.70;44.10
3348;DHT22;1687;49.540;8.574;2023-07-20T13:02:30;27.60;44.20
3348;DHT22;1687;49.540;8.574;2023-07-20T13:04:57;27.60;44.30
3348;DHT22;1687;49.540;8.574;2023-07-20T13:07:49;27.50;44.20
3348;DHT22;1687;49.540;8.574;2023-07-20T13:10:15;27.60;44.40
3348;DHT22;1687;49.540;8.574;2023-07-20T13:12:41;27.90;44.60
3348;DHT22;1687;49.540;8.574;2023-07-20T13:15:08;28.10;44.50
3348;DHT22;1687;49.540;8.574;2023-07-20T13:17:37;28.40;44.40
3348;DHT22;1687;49.540;8.574;2023-07-20T13:20:09;28.60;44.10
3348;DHT22;1687;49.540;8.574;2023-07-20T13:22:36;28.70;43.90
3348;DHT22;1687;49.540;8.574;2023-07-20T13:25:03;29.00;44.00
3348;DHT22;1687;49.540;8.574;2023-07-20T13:27:28;29.10;43.70
3348;DHT22;1687;49.540;8.574;2023-07-20T13:29:55;29.20;43.40
3348;DHT22;1687;49.540;8.574;2023-07-20T13:32:22;29.20;43.10
3348;DHT22;1687;49.540;8.574;2023-07-20T13:34:48;29.20;43.20
3348;DHT22;1687;49.540;8.574;2023-07-20T13:37:14;29.50;43.40
3348;DHT22;1687;49.540;8.574;2023-07-20T13:39:39;29.90;43.40
3348;DHT22;1687;49.540;8.574;2023-07-20T13:42:05;30.50;43.30
3348;DHT22;1687;49.540;8.574;2023-07-20T13:44:32;31.10;43.10
3348;DHT22;1687;49.540;8.574;2023-07-20T13:46:59;31.50;42.40
3348;DHT22;1687;49.540;8.574;2023-07-20T13:49:25;32.20;42.30
3348;DHT22;1687;49.540;8.574;2023-07-20T13:51:50;33.00;41.70
3348;DHT22;1687;49.540;8.574;2023-07-20T13:54:16;33.70;41.30
3348;DHT22;1687;49.540;8.574;2023-07-20T13:56:42;34.60;41.00
3348;DHT22;1687;49.540;8.574;2023-07-20T13:59:07;35.80;40.70
3348;DHT22;1687;49.540;8.574;2023-07-20T14:01:33;36.80;39.80
3348;DHT22;1687;49.540;8.574;2023-07-20T14:04:01;37.20;39.00
3348;DHT22;1687;49.540;8.574;2023-07-20T14:06:30;37.90;38.60
3348;DHT22;1687;49.540;8.574;2023-07-20T14:08:57;38.40;37.90
3348;DHT22;1687;49.540;8.574;2023-07-20T14:11:23;37.70;36.90
3348;DHT22;1687;49.540;8.574;2023-07-20T14:13:50;37.20;36.40
3348;DHT22;1687;49.540;8.574;2023-07-20T14:16:17;36.00;35.70
3348;DHT22;1687;49.540;8.574;2023-07-20T14:18:42;34.80;36.60
3348;DHT22;1687;49.540;8.574;2023-07-20T14:21:08;33.80;36.00
3348;DHT22;1687;49.540;8.574;2023-07-20T14:23:34;33.40;36.70
3348;DHT22;1687;49.540;8.574;2023-07-20T14:26:01;32.80;36.50
3348;DHT22;1687;49.540;8.574;2023-07-20T14:28:30;32.30;36.40
3348;DHT22;1687;49.540;8.574;2023-07-20T14:30:57;31.80;36.90
3348;DHT22;1687;49.540;8.574;2023-07-20T14:33:23;31.80;37.20
3348;DHT22;1687;49.540;8.574;2023-07-20T14:35:48;31.80;37.20
3348;DHT22;1687;49.540;8.574;2023-07-20T14:38:14;32.20;37.70
3348;DHT22;1687;49.540;8.574;2023-07-20T14:40:40;34.30;38.60
3348;DHT22;1687;49.540;8.574;2023-07-20T14:43:06;36.60;38.10
3348;DHT22;1687;49.540;8.574;2023-07-20T14:45:32;38.50;37.70
3348;DHT22;1687;49.540;8.574;2023-07-20T14:47:58;40.20;37.30
3348;DHT22;1687;49.540;8.574;2023-07-20T14:50:24;41.80;36.80
3348;DHT22;1687;49.540;8.574;2023-07-20T14:52:50;42.30;34.90
3348;DHT22;1687;49.540;8.574;2023-07-20T14:55:16;42.70;34.80
3348;DHT22;1687;49.540;8.574;2023-07-20T14:57:42;42.20;33.20
3348;DHT22;1687;49.540;8.574;2023-07-20T15:00:08;40.00;32.50
3348;DHT22;1687;49.540;8.574;2023-07-20T15:02:37;38.40;33.40
3348;DHT22;1687;49.540;8.574;2023-07-20T15:05:06;37.90;34.10
3348;DHT22;1687;49.540;8.574;2023-07-20T15:07:32;39.10;34.80
3348;DHT22;1687;49.540;8.574;2023-07-20T15:09:59;38.50;33.20
3348;DHT22;1687;49.540;8.574;2023-07-20T15:12:25;37.60;33.30
3348;DHT22;1687;49.540;8.574;2023-07-20T15:15:10;38.10;34.50
3348;DHT22;1687;49.540;8.574;2023-07-20T15:17:38;39.20;33.50
3348;DHT22;1687;49.540;8.574;2023-07-20T15:20:05;39.50;33.60
3348;DHT22;1687;49.540;8.574;2023-07-20T15:22:35;40.40;34.00
3348;DHT22;1687;49.540;8.574;2023-07-20T15:25:04;41.20;33.50
3348;DHT22;1687;49.540;8.574;2023-07-20T15:27:30;41.80;33.10
3348;DHT22;1687;49.540;8.574;2023-07-20T15:29:56;40.80;32.10
3348;DHT22;1687;49.540;8.574;2023-07-20T15:32:22;39.20;32.10
3348;DHT22;1687;49.540;8.574;2023-07-20T15:34:48;38.00;32.20
3348;DHT22;1687;49.540;8.574;2023-07-20T15:37:13;37.00;32.50
3348;DHT22;1687;49.540;8.574;2023-07-20T15:39:40;36.40;32.80
3348;DHT22;1687;49.540;8.574;2023-07-20T15:42:07;36.00;33.10
3348;DHT22;1687;49.540;8.574;2023-07-20T15:44:33;35.50;33.10
3348;DHT22;1687;49.540;8.574;2023-07-20T15:46:59;35.00;33.20
3348;DHT22;1687;49.540;8.574;2023-07-20T15:49:24;35.00;33.80
3348;DHT22;1687;49.540;8.574;2023-07-20T15:51:50;35.60;34.00
3348;DHT22;1687;49.540;8.574;2023-07-20T15:54:16;36.10;33.90
3348;DHT22;1687;49.540;8.574;2023-07-20T15:56:43;36.50;34.00
3348;DHT22;1687;49.540;8.574;2023-07-20T15:59:12;36.70;33.70
3348;DHT22;1687;49.540;8.574;2023-07-20T16:01:39;36.40;33.60
3348;DHT22;1687;49.540;8.574;2023-07-20T16:04:06;37.50;34.30
3348;DHT22;1687;49.540;8.574;2023-07-20T16:06:31;38.70;33.80
3348;DHT22;1687;49.540;8.574;2023-07-20T16:08:58;38.50;32.40
3348;DHT22;1687;49.540;8.574;2023-07-20T16:11:24;37.20;32.00
3348;DHT22;1687;49.540;8.574;2023-07-20T16:13:50;36.20;32.50